sensor_id;sensor_type;location;lat;lon;timestamp;P1;durP1;ratioP1;P2;durP2;ratioP2
61330;SDS011;71993;52.478;-1.918;2023-12-28T00:01:00;2.72;;;0.80;;
61330;SDS011;71993;52.478;-1.918;2023-12-28T00:03:30;2.38;;;1.08;;
61330;SDS011;71993;52.478;-1.918;2023-12-28T00:06:01;2.75;;;0.90;;
61330;SDS011;71993;52.478;-1.918;2023-12-28T00:08:31;2.88;;;0.98;;
61330;SDS011;71993;52.478;-1.918;2023-12-28T00:11:05;2.35;;;0.85;;
61330;SDS011;71993;52.478;-1.918;2023-12-28T00:13:35;2.45;;;0.82;;
61330;SDS011;71993;52.478;-1.918;2023-12-28T00:16:07;3.83;;;0.80;;
61330;SDS011;71993;52.478;-1.918;2023-12-28T00:18:37;2.65;;;0.82;;
61330;SDS011;71993;52.478;-1.918;2023-12-28T00:21:05;3.70;;;1.10;;
61330;SDS011;71993;52.478;-1.918;2023-12-28T00:23:34;3.08;;;1.00;;
61330;SDS011;71993;52.478;-1.918;2023-12-28T00:26:07;2.10;;;0.95;;
61330;SDS011;71993;52.478;-1.918;2023-12-28T00:28:37;2.22;;;0.90;;
61330;SDS011;71993;52.478;-1.918;2023-12-28T00:31:09;2.85;;;0.85;;
61330;SDS011;71993;52.478;-1.918;2023-12-28T00:33:39;2.92;;;0.90;;
61330;SDS011;71993;52.478;-1.918;2023-12-28T00:36:09;3.28;;;1.00;;
61330;SDS011;71993;52.478;-1.918;2023-12-28T00:38:40;3.25;;;0.93;;
61330;SDS011;71993;52.478;-1.918;2023-12-28T00:41:13;2.80;;;0.98;;
61330;SDS011;71993;52.478;-1.918;2023-12-28T00:43:44;1.65;;;0.80;;
61330;SDS011;71993;52.478;-1.918;2023-12-28T00:46:14;1.90;;;0.80;;
61330;SDS011;71993;52.478;-1.918;2023-12-28T00:48:45;2.90;;;1.00;;
61330;SDS011;71993;52.478;-1.918;2023-12-28T00:51:15;1.95;;;0.95;;
61330;SDS011;71993;52.478;-1.918;2023-12-28T00:53:45;1.25;;;0.60;;
61330;SDS011;71993;52.478;-1.918;2023-12-28T00:56:20;1.65;;;0.80;;
61330;SDS011;71993;52.478;-1.918;2023-12-28T00:58:50;2.30;;;0.80;;
61330;SDS011;71993;52.478;-1.918;2023-12-28T01:01:21;1.77;;;0.80;;
61330;SDS011;71993;52.478;-1.918;2023-12-28T01:03:51;2.45;;;0.80;;
61330;SDS011;71993;52.478;-1.918;2023-12-28T01:06:22;2.60;;;0.90;;
61330;SDS011;71993;52.478;-1.918;2023-12-28T01:08:55;2.00;;;1.00;;
61330;SDS011;71993;52.478;-1.918;2023-12-28T01:11:28;3.20;;;0.90;;
61330;SDS011;71993;52.478;-1.918;2023-12-28T01:13:58;2.45;;;0.90;;
61330;SDS011;71993;52.478;-1.918;2023-12-28T01:16:29;2.45;;;0.82;;
61330;SDS011;71993;52.478;-1.918;2023-12-28T01:18:59;2.58;;;0.98;;
61330;SDS011;71993;52.478;-1.918;2023-12-28T01:21:30;3.70;;;0.93;;
61330;SDS011;71993;52.478;-1.918;2023-12-28T01:24:01;2.53;;;1.00;;
61330;SDS011;71993;52.478;-1.918;2023-12-28T01:26:34;2.30;;;1.10;;
61330;SDS011;71993;52.478;-1.918;2023-12-28T01:29:04;2.45;;;1.02;;
61330;SDS011;71993;52.478;-1.918;2023-12-28T01:31:35;2.05;;;0.80;;
61330;SDS011;71993;52.478;-1.918;2023-12-28T01:34:04;2.72;;;1.00;;
61330;SDS011;71993;52.478;-1.918;2023-12-28T01:36:36;2.10;;;0.82;;
61330;SDS011;71993;52.478;-1.918;2023-12-28T01:39:09;2.78;;;0.93;;
61330;SDS011;71993;52.478;-1.918;2023-12-28T01:41:43;3.33;;;1.02;;
61330;SDS011;71993;52.478;-1.918;2023-12-28T01:44:14;2.65;;;0.90;;
61330;SDS011;71993;52.478;-1.918;2023-12-28T01:46:44;3.55;;;1.00;;
61330;SDS011;71993;52.478;-1.918;2023-12-28T01:49:15;3.42;;;1.15;;
61330;SDS011;71993;52.478;-1.918;2023-12-28T01:51:46;4.38;;;1.20;;
61330;SDS011;71993;52.478;-1.918;2023-12-28T01:54:17;2.10;;;0.80;;
61330;SDS011;71993;52.478;-1.918;2023-12-28T01:56:51;1.95;;;0.98;;
61330;SDS011;71993;52.478;-1.918;2023-12-28T01:59:21;3.42;;;1.13;;
61330;SDS011;71993;52.478;-1.918;2023-12-28T02:01:52;1.70;;;0.80;;
61330;SDS011;71993;52.478;-1.918;2023-12-28T02:04:22;2.58;;;0.70;;
61330;SDS011;71993;52.478;-1.918;2023-12-28T02:06:56;4.13;;;1.00;;
61330;SDS011;71993;52.478;-1.918;2023-12-28T02:09:26;3.67;;;0.82;;
61330;SDS011;71993;52.478;-1.918;2023-12-28T02:11:59;2.88;;;0.77;;
61330;SDS011;71993;52.478;-1.918;2023-12-28T02:14:30;3.20;;;0.90;;
61330;SDS011;71993;52.478;-1.918;2023-12-28T02:17:03;4.10;;;1.00;;
61330;SDS011;71993;52.478;-1.918;2023-12-28T02:19:39;1.60;;;0.80;;
61330;SDS011;71993;52.478;-1.918;2023-12-28T02:22:10;3.75;;;1.00;;
61330;SDS011;71993;52.478;-1.918;2023-12-28T02:24:58;2.88;;;0.95;;
61330;SDS011;71993;52.478;-1.918;2023-12-28T02:27:28;2.88;;;1.00;;
61330;SDS011;71993;52.478;-1.918;2023-12-28T02:30:00;2.35;;;0.85;;
61330;SDS011;71993;52.478;-1.918;2023-12-28T02:32:43;1.83;;;1.00;;
61330;SDS011;71993;52.478;-1.918;2023-12-28T02:35:16;2.55;;;1.00;;
61330;SDS011;71993;52.478;-1.918;2023-12-28T02:37:46;2.95;;;0.90;;
61330;SDS011;71993;52.478;-1.918;2023-12-28T02:40:20;2.20;;;1.02;;
61330;SDS011;71993;52.478;-1.918;2023-12-28T02:42:51;2.88;;;1.05;;
61330;SDS011;71993;52.478;-1.918;2023-12-28T02:45:21;2.42;;;1.00;;
61330;SDS011;71993;52.478;-1.918;2023-12-28T02:47:53;3.67;;;1.02;;
61330;SDS011;71993;52.478;-1.918;2023-12-28T02:50:23;2.65;;;1.08;;
61330;SDS011;71993;52.478;-1.918;2023-12-28T02:52:52;2.88;;;1.00;;
61330;SDS011;71993;52.478;-1.918;2023-12-28T02:55:23;2.70;;;0.90;;
61330;SDS011;71993;52.478;-1.918;2023-12-28T02:57:54;4.03;;;1.13;;
61330;SDS011;71993;52.478;-1.918;2023-12-28T03:00:26;3.63;;;1.20;;
61330;SDS011;71993;52.478;-1.918;2023-12-28T03:02:55;3.22;;;1.05;;
61330;SDS011;71993;52.478;-1.918;2023-12-28T03:05:23;2.58;;;1.00;;
61330;SDS011;71993;52.478;-1.918;2023-12-28T03:07:54;3.22;;;1.05;;
61330;SDS011;71993;52.478;-1.918;2023-12-28T03:10:28;4.05;;;1.20;;
61330;SDS011;71993;52.478;-1.918;2023-12-28T03:13:00;1.80;;;0.70;;
61330;SDS011;71993;52.478;-1.918;2023-12-28T03:15:31;3.55;;;1.08;;
61330;SDS011;71993;52.478;-1.918;2023-12-28T03:18:01;2.33;;;0.85;;
61330;SDS011;71993;52.478;-1.918;2023-12-28T03:20:32;3.35;;;1.05;;
61330;SDS011;71993;52.478;-1.918;2023-12-28T03:23:02;2.42;;;0.90;;
61330;SDS011;71993;52.478;-1.918;2023-12-28T03:25:35;2.17;;;0.80;;
61330;SDS011;71993;52.478;-1.918;2023-12-28T03:28:06;4.85;;;1.00;;
61330;SDS011;71993;52.478;-1.918;2023-12-28T03:30:36;3.08;;;0.85;;
61330;SDS011;71993;52.478;-1.918;2023-12-28T03:33:08;3.92;;;1.27;;
61330;SDS011;71993;52.478;-1.918;2023-12-28T03:35:38;3.35;;;1.10;;
61330;SDS011;71993;52.478;-1.918;2023-12-28T03:38:09;2.95;;;0.98;;
61330;SDS011;71993;52.478;-1.918;2023-12-28T03:40:44;2.95;;;1.10;;
61330;SDS011;71993;52.478;-1.918;2023-12-28T03:43:17;3.38;;;1.00;;
61330;SDS011;71993;52.478;-1.918;2023-12-28T03:45:47;3.58;;;1.00;;
61330;SDS011;71993;52.478;-1.918;2023-12-28T03:48:18;3.85;;;1.15;;
61330;SDS011;71993;52.478;-1.918;2023-12-28T03:50:48;4.38;;;1.17;;
61330;SDS011;71993;52.478;-1.918;2023-12-28T03:53:19;2.58;;;1.13;;
61330;SDS011;71993;52.478;-1.918;2023-12-28T03:55:52;4.20;;;1.20;;
61330;SDS011;71993;52.478;-1.918;2023-12-28T03:58:22;2.97;;;1.00;;
61330;SDS011;71993;52.478;-1.918;2023-12-28T04:00:53;2.35;;;1.10;;
61330;SDS011;71993;52.478;-1.918;2023-12-28T04:03:21;2.97;;;1.00;;
61330;SDS011;71993;52.478;-1.918;2023-12-28T04:05:50;1.80;;;0.90;;
61330;SDS011;71993;52.478;-1.918;2023-12-28T04:08:20;2.58;;;1.00;;
61330;SDS011;71993;52.478;-1.918;2023-12-28T04:10:53;2.95;;;1.00;;
61330;SDS011;71993;52.478;-1.918;2023-12-28T04:13:24;4.07;;;1.08;;
61330;SDS011;71993;52.478;-1.918;2023-12-28T04:15:54;3.45;;;1.08;;
61330;SDS011;71993;52.478;-1.918;2023-12-28T04:18:25;3.85;;;1.08;;
61330;SDS011;71993;52.478;-1.918;2023-12-28T04:20:55;2.22;;;0.90;;
61330;SDS011;71993;52.478;-1.918;2023-12-28T04:23:26;4.35;;;1.20;;
61330;SDS011;71993;52.478;-1.918;2023-12-28T04:26:00;2.97;;;0.90;;
61330;SDS011;71993;52.478;-1.918;2023-12-28T04:28:31;2.25;;;0.90;;
61330;SDS011;71993;52.478;-1.918;2023-12-28T04:31:02;2.30;;;0.88;;
61330;SDS011;71993;52.478;-1.918;2023-12-28T04:33:33;3.40;;;0.90;;
61330;SDS011;71993;52.478;-1.918;2023-12-28T04:36:04;3.00;;;1.10;;
61330;SDS011;71993;52.478;-1.918;2023-12-28T04:38:34;2.55;;;0.80;;
61330;SDS011;71993;52.478;-1.918;2023-12-28T04:41:09;3.03;;;1.10;;
61330;SDS011;71993;52.478;-1.918;2023-12-28T04:43:39;2.92;;;0.82;;
61330;SDS011;71993;52.478;-1.918;2023-12-28T04:46:10;3.03;;;0.93;;
61330;SDS011;71993;52.478;-1.918;2023-12-28T04:48:40;3.92;;;1.20;;
61330;SDS011;71993;52.478;-1.918;2023-12-28T04:51:11;4.97;;;1.20;;
61330;SDS011;71993;52.478;-1.918;2023-12-28T04:53:41;2.78;;;0.85;;
61330;SDS011;71993;52.478;-1.918;2023-12-28T04:56:17;3.10;;;1.08;;
61330;SDS011;71993;52.478;-1.918;2023-12-28T04:58:47;3.05;;;1.13;;
61330;SDS011;71993;52.478;-1.918;2023-12-28T05:01:18;2.47;;;0.90;;
61330;SDS011;71993;52.478;-1.918;2023-12-28T05:03:50;3.25;;;1.00;;
61330;SDS011;71993;52.478;-1.918;2023-12-28T05:06:22;3.90;;;1.23;;
61330;SDS011;71993;52.478;-1.918;2023-12-28T05:08:53;3.42;;;1.00;;
61330;SDS011;71993;52.478;-1.918;2023-12-28T05:11:26;3.30;;;0.90;;
61330;SDS011;71993;52.478;-1.918;2023-12-28T05:13:57;3.42;;;1.05;;
61330;SDS011;71993;52.478;-1.918;2023-12-28T05:16:27;2.33;;;0.85;;
61330;SDS011;71993;52.478;-1.918;2023-12-28T05:18:58;3.40;;;1.10;;
61330;SDS011;71993;52.478;-1.918;2023-12-28T05:21:29;2.70;;;0.88;;
61330;SDS011;71993;52.478;-1.918;2023-12-28T05:23:59;2.22;;;0.90;;
61330;SDS011;71993;52.478;-1.918;2023-12-28T05:26:32;2.97;;;0.88;;
61330;SDS011;71993;52.478;-1.918;2023-12-28T05:29:02;2.42;;;0.80;;
61330;SDS011;71993;52.478;-1.918;2023-12-28T05:31:33;2.13;;;0.90;;
61330;SDS011;71993;52.478;-1.918;2023-12-28T05:34:03;2.22;;;0.85;;
61330;SDS011;71993;52.478;-1.918;2023-12-28T05:36:34;3.03;;;0.93;;
61330;SDS011;71993;52.478;-1.918;2023-12-28T05:39:04;2.28;;;0.85;;
61330;SDS011;71993;52.478;-1.918;2023-12-28T05:41:37;2.72;;;0.98;;
61330;SDS011;71993;52.478;-1.918;2023-12-28T05:44:07;2.92;;;1.08;;
61330;SDS011;71993;52.478;-1.918;2023-12-28T05:46:38;3.85;;;1.10;;
61330;SDS011;71993;52.478;-1.918;2023-12-28T05:49:08;2.70;;;1.00;;
61330;SDS011;71993;52.478;-1.918;2023-12-28T05:51:39;2.45;;;0.80;;
61330;SDS011;71993;52.478;-1.918;2023-12-28T05:54:10;2.08;;;0.90;;
61330;SDS011;71993;52.478;-1.918;2023-12-28T05:56:43;2.67;;;0.90;;
61330;SDS011;71993;52.478;-1.918;2023-12-28T05:59:13;2.30;;;0.88;;
61330;SDS011;71993;52.478;-1.918;2023-12-28T06:01:43;3.33;;;1.00;;
61330;SDS011;71993;52.478;-1.918;2023-12-28T06:04:14;3.45;;;1.20;;
61330;SDS011;71993;52.478;-1.918;2023-12-28T06:06:45;1.85;;;0.70;;
61330;SDS011;71993;52.478;-1.918;2023-12-28T06:09:15;2.83;;;0.88;;
61330;SDS011;71993;52.478;-1.918;2023-12-28T06:11:48;2.63;;;0.90;;
61330;SDS011;71993;52.478;-1.918;2023-12-28T06:14:17;2.15;;;0.93;;
61330;SDS011;71993;52.478;-1.918;2023-12-28T06:16:47;2.28;;;0.80;;
61330;SDS011;71993;52.478;-1.918;2023-12-28T06:19:18;2.15;;;0.82;;
61330;SDS011;71993;52.478;-1.918;2023-12-28T06:21:49;1.75;;;0.77;;
61330;SDS011;71993;52.478;-1.918;2023-12-28T06:24:21;1.83;;;0.80;;
61330;SDS011;71993;52.478;-1.918;2023-12-28T06:26:54;2.15;;;0.90;;
61330;SDS011;71993;52.478;-1.918;2023-12-28T06:29:25;1.63;;;0.70;;
61330;SDS011;71993;52.478;-1.918;2023-12-28T06:31:55;2.13;;;0.75;;
61330;SDS011;71993;52.478;-1.918;2023-12-28T06:34:25;3.00;;;0.82;;
61330;SDS011;71993;52.478;-1.918;2023-12-28T06:36:56;2.15;;;0.88;;
61330;SDS011;71993;52.478;-1.918;2023-12-28T06:39:28;2.97;;;0.75;;
61330;SDS011;71993;52.478;-1.918;2023-12-28T06:42:02;1.95;;;0.90;;
61330;SDS011;71993;52.478;-1.918;2023-12-28T06:44:33;2.25;;;0.80;;
61330;SDS011;71993;52.478;-1.918;2023-12-28T06:47:03;1.92;;;0.70;;
61330;SDS011;71993;52.478;-1.918;2023-12-28T06:49:34;2.70;;;1.05;;
61330;SDS011;71993;52.478;-1.918;2023-12-28T06:52:05;2.20;;;0.80;;
61330;SDS011;71993;52.478;-1.918;2023-12-28T06:54:35;2.15;;;0.70;;
61330;SDS011;71993;52.478;-1.918;2023-12-28T06:57:08;2.67;;;0.85;;
61330;SDS011;71993;52.478;-1.918;2023-12-28T06:59:38;2.70;;;0.93;;
61330;SDS011;71993;52.478;-1.918;2023-12-28T07:02:09;2.40;;;0.90;;
61330;SDS011;71993;52.478;-1.918;2023-12-28T07:04:39;2.22;;;0.80;;
61330;SDS011;71993;52.478;-1.918;2023-12-28T07:07:10;1.45;;;0.70;;
61330;SDS011;71993;52.478;-1.918;2023-12-28T07:09:40;2.55;;;0.70;;
61330;SDS011;71993;52.478;-1.918;2023-12-28T07:12:11;2.15;;;0.77;;
61330;SDS011;71993;52.478;-1.918;2023-12-28T07:14:42;1.85;;;0.75;;
61330;SDS011;71993;52.478;-1.918;2023-12-28T07:17:13;2.10;;;0.60;;
61330;SDS011;71993;52.478;-1.918;2023-12-28T07:19:44;2.67;;;0.80;;
61330;SDS011;71993;52.478;-1.918;2023-12-28T07:22:13;2.33;;;0.88;;
61330;SDS011;71993;52.478;-1.918;2023-12-28T07:24:41;3.00;;;0.77;;
61330;SDS011;71993;52.478;-1.918;2023-12-28T07:27:14;1.83;;;0.60;;
61330;SDS011;71993;52.478;-1.918;2023-12-28T07:29:45;1.40;;;0.60;;
61330;SDS011;71993;52.478;-1.918;2023-12-28T07:32:13;1.83;;;0.82;;
61330;SDS011;71993;52.478;-1.918;2023-12-28T07:34:42;2.15;;;0.60;;
61330;SDS011;71993;52.478;-1.918;2023-12-28T07:37:12;2.58;;;0.85;;
61330;SDS011;71993;52.478;-1.918;2023-12-28T07:39:43;1.92;;;0.80;;
61330;SDS011;71993;52.478;-1.918;2023-12-28T07:42:16;1.80;;;0.60;;
61330;SDS011;71993;52.478;-1.918;2023-12-28T07:44:46;1.50;;;0.65;;
61330;SDS011;71993;52.478;-1.918;2023-12-28T07:47:15;1.52;;;0.65;;
61330;SDS011;71993;52.478;-1.918;2023-12-28T07:49:43;1.77;;;0.65;;
61330;SDS011;71993;52.478;-1.918;2023-12-28T07:52:13;1.85;;;0.80;;
61330;SDS011;71993;52.478;-1.918;2023-12-28T07:54:44;1.17;;;0.60;;
61330;SDS011;71993;52.478;-1.918;2023-12-28T07:57:17;1.67;;;0.50;;
61330;SDS011;71993;52.478;-1.918;2023-12-28T07:59:48;1.20;;;0.57;;
61330;SDS011;71993;52.478;-1.918;2023-12-28T08:02:18;1.75;;;0.60;;
61330;SDS011;71993;52.478;-1.918;2023-12-28T08:04:49;2.25;;;0.80;;
61330;SDS011;71993;52.478;-1.918;2023-12-28T08:07:19;2.20;;;0.63;;
61330;SDS011;71993;52.478;-1.918;2023-12-28T08:09:50;2.45;;;0.60;;
61330;SDS011;71993;52.478;-1.918;2023-12-28T08:12:23;1.80;;;0.60;;
61330;SDS011;71993;52.478;-1.918;2023-12-28T08:14:54;1.50;;;0.75;;
61330;SDS011;71993;52.478;-1.918;2023-12-28T08:17:25;1.58;;;0.68;;
61330;SDS011;71993;52.478;-1.918;2023-12-28T08:19:55;1.15;;;0.60;;
61330;SDS011;71993;52.478;-1.918;2023-12-28T08:22:26;1.92;;;0.73;;
61330;SDS011;71993;52.478;-1.918;2023-12-28T08:24:56;1.50;;;0.70;;
61330;SDS011;71993;52.478;-1.918;2023-12-28T08:27:30;1.52;;;0.65;;
61330;SDS011;71993;52.478;-1.918;2023-12-28T08:30:00;1.25;;;0.60;;
61330;SDS011;71993;52.478;-1.918;2023-12-28T08:32:31;2.00;;;0.63;;
61330;SDS011;71993;52.478;-1.918;2023-12-28T08:35:03;1.63;;;0.60;;
61330;SDS011;71993;52.478;-1.918;2023-12-28T08:37:34;1.20;;;0.60;;
61330;SDS011;71993;52.478;-1.918;2023-12-28T08:40:05;1.20;;;0.60;;
61330;SDS011;71993;52.478;-1.918;2023-12-28T08:42:38;2.30;;;0.70;;
61330;SDS011;71993;52.478;-1.918;2023-12-28T08:45:09;1.42;;;0.60;;
61330;SDS011;71993;52.478;-1.918;2023-12-28T08:47:39;1.83;;;0.55;;
61330;SDS011;71993;52.478;-1.918;2023-12-28T08:50:10;1.55;;;0.70;;
61330;SDS011;71993;52.478;-1.918;2023-12-28T08:52:40;1.00;;;0.57;;
61330;SDS011;71993;52.478;-1.918;2023-12-28T08:55:11;1.25;;;0.60;;
61330;SDS011;71993;52.478;-1.918;2023-12-28T08:57:44;1.75;;;0.70;;
61330;SDS011;71993;52.478;-1.918;2023-12-28T09:00:15;1.05;;;0.60;;
61330;SDS011;71993;52.478;-1.918;2023-12-28T09:02:43;1.02;;;0.47;;
61330;SDS011;71993;52.478;-1.918;2023-12-28T09:05:12;1.88;;;0.70;;
61330;SDS011;71993;52.478;-1.918;2023-12-28T09:07:42;1.17;;;0.55;;
61330;SDS011;71993;52.478;-1.918;2023-12-28T09:10:13;0.77;;;0.45;;
61330;SDS011;71993;52.478;-1.918;2023-12-28T09:12:46;1.63;;;0.55;;
61330;SDS011;71993;52.478;-1.918;2023-12-28T09:15:17;1.40;;;0.50;;
61330;SDS011;71993;52.478;-1.918;2023-12-28T09:17:46;2.70;;;0.75;;
61330;SDS011;71993;52.478;-1.918;2023-12-28T09:20:17;1.20;;;0.50;;
61330;SDS011;71993;52.478;-1.918;2023-12-28T09:22:46;1.13;;;0.45;;
61330;SDS011;71993;52.478;-1.918;2023-12-28T09:25:20;1.55;;;0.68;;
61330;SDS011;71993;52.478;-1.918;2023-12-28T09:27:54;1.42;;;0.70;;
61330;SDS011;71993;52.478;-1.918;2023-12-28T09:30:24;1.15;;;0.60;;
61330;SDS011;71993;52.478;-1.918;2023-12-28T09:32:53;1.90;;;0.60;;
61330;SDS011;71993;52.478;-1.918;2023-12-28T09:35:21;2.03;;;0.63;;
61330;SDS011;71993;52.478;-1.918;2023-12-28T09:37:52;0.60;;;0.32;;
61330;SDS011;71993;52.478;-1.918;2023-12-28T09:40:23;0.75;;;0.50;;
61330;SDS011;71993;52.478;-1.918;2023-12-28T09:43:00;0.90;;;0.50;;
61330;SDS011;71993;52.478;-1.918;2023-12-28T09:45:29;0.68;;;0.40;;
61330;SDS011;71993;52.478;-1.918;2023-12-28T09:48:00;1.13;;;0.50;;
61330;SDS011;71993;52.478;-1.918;2023-12-28T09:50:32;1.33;;;0.65;;
61330;SDS011;71993;52.478;-1.918;2023-12-28T09:53:02;1.05;;;0.50;;
61330;SDS011;71993;52.478;-1.918;2023-12-28T09:55:33;1.00;;;0.40;;
61330;SDS011;71993;52.478;-1.918;2023-12-28T09:58:06;2.05;;;0.68;;
61330;SDS011;71993;52.478;-1.918;2023-12-28T10:00:37;2.45;;;0.60;;
61330;SDS011;71993;52.478;-1.918;2023-12-28T10:03:08;1.27;;;0.60;;
61330;SDS011;71993;52.478;-1.918;2023-12-28T10:05:40;1.73;;;0.60;;
61330;SDS011;71993;52.478;-1.918;2023-12-28T10:08:11;1.98;;;0.63;;
61330;SDS011;71993;52.478;-1.918;2023-12-28T10:10:41;2.03;;;0.60;;
61330;SDS011;71993;52.478;-1.918;2023-12-28T10:13:18;1.55;;;0.50;;
61330;SDS011;71993;52.478;-1.918;2023-12-28T10:15:49;2.05;;;0.60;;
61330;SDS011;71993;52.478;-1.918;2023-12-28T10:18:19;1.85;;;0.70;;
61330;SDS011;71993;52.478;-1.918;2023-12-28T10:20:50;1.88;;;0.73;;
61330;SDS011;71993;52.478;-1.918;2023-12-28T10:23:21;2.00;;;0.70;;
61330;SDS011;71993;52.478;-1.918;2023-12-28T10:25:51;1.67;;;0.60;;
61330;SDS011;71993;52.478;-1.918;2023-12-28T10:28:26;2.33;;;0.80;;
61330;SDS011;71993;52.478;-1.918;2023-12-28T10:30:56;1.25;;;0.60;;
61330;SDS011;71993;52.478;-1.918;2023-12-28T10:33:27;1.92;;;0.85;;
61330;SDS011;71993;52.478;-1.918;2023-12-28T10:35:57;2.33;;;0.80;;
61330;SDS011;71993;52.478;-1.918;2023-12-28T10:38:28;1.83;;;0.70;;
61330;SDS011;71993;52.478;-1.918;2023-12-28T10:41:01;2.83;;;0.60;;
61330;SDS011;71993;52.478;-1.918;2023-12-28T10:43:38;2.60;;;0.68;;
61330;SDS011;71993;52.478;-1.918;2023-12-28T10:46:10;4.00;;;0.80;;
61330;SDS011;71993;52.478;-1.918;2023-12-28T10:48:43;3.47;;;0.90;;
61330;SDS011;71993;52.478;-1.918;2023-12-28T10:51:15;3.80;;;0.90;;
61330;SDS011;71993;52.478;-1.918;2023-12-28T10:53:48;4.30;;;1.10;;
61330;SDS011;71993;52.478;-1.918;2023-12-28T10:56:21;3.60;;;1.10;;
61330;SDS011;71993;52.478;-1.918;2023-12-28T10:58:58;3.35;;;1.05;;
61330;SDS011;71993;52.478;-1.918;2023-12-28T11:01:37;5.45;;;1.20;;
61330;SDS011;71993;52.478;-1.918;2023-12-28T11:04:12;5.13;;;1.40;;
61330;SDS011;71993;52.478;-1.918;2023-12-28T11:06:44;7.00;;;1.70;;
61330;SDS011;71993;52.478;-1.918;2023-12-28T11:09:16;6.10;;;1.70;;
61330;SDS011;71993;52.478;-1.918;2023-12-28T11:11:47;5.32;;;1.30;;
61330;SDS011;71993;52.478;-1.918;2023-12-28T11:14:22;6.80;;;1.60;;
61330;SDS011;71993;52.478;-1.918;2023-12-28T11:16:53;7.63;;;1.50;;
61330;SDS011;71993;52.478;-1.918;2023-12-28T11:19:24;6.28;;;1.58;;
61330;SDS011;71993;52.478;-1.918;2023-12-28T11:21:54;5.15;;;1.23;;
61330;SDS011;71993;52.478;-1.918;2023-12-28T11:24:27;4.32;;;1.17;;
61330;SDS011;71993;52.478;-1.918;2023-12-28T11:26:58;5.35;;;1.20;;
61330;SDS011;71993;52.478;-1.918;2023-12-28T11:29:31;7.60;;;1.42;;
61330;SDS011;71993;52.478;-1.918;2023-12-28T11:32:02;3.80;;;1.30;;
61330;SDS011;71993;52.478;-1.918;2023-12-28T11:34:33;4.53;;;1.20;;
61330;SDS011;71993;52.478;-1.918;2023-12-28T11:37:04;4.15;;;1.23;;
61330;SDS011;71993;52.478;-1.918;2023-12-28T11:39:37;4.03;;;1.20;;
61330;SDS011;71993;52.478;-1.918;2023-12-28T11:42:07;4.85;;;1.30;;
61330;SDS011;71993;52.478;-1.918;2023-12-28T11:44:41;3.97;;;1.23;;
61330;SDS011;71993;52.478;-1.918;2023-12-28T11:47:12;5.53;;;1.30;;
61330;SDS011;71993;52.478;-1.918;2023-12-28T11:49:43;2.90;;;1.13;;
61330;SDS011;71993;52.478;-1.918;2023-12-28T11:52:22;4.65;;;1.23;;
61330;SDS011;71993;52.478;-1.918;2023-12-28T11:54:52;3.47;;;0.80;;
61330;SDS011;71993;52.478;-1.918;2023-12-28T11:57:23;3.08;;;1.20;;
61330;SDS011;71993;52.478;-1.918;2023-12-28T12:02:29;3.92;;;1.10;;
61330;SDS011;71993;52.478;-1.918;2023-12-28T12:05:00;5.45;;;1.20;;
61330;SDS011;71993;52.478;-1.918;2023-12-28T12:07:30;2.92;;;0.80;;
61330;SDS011;71993;52.478;-1.918;2023-12-28T12:10:01;3.05;;;1.23;;
61330;SDS011;71993;52.478;-1.918;2023-12-28T12:12:31;5.20;;;1.13;;
61330;SDS011;71993;52.478;-1.918;2023-12-28T12:15:02;3.30;;;0.90;;
61330;SDS011;71993;52.478;-1.918;2023-12-28T12:17:35;3.35;;;1.02;;
61330;SDS011;71993;52.478;-1.918;2023-12-28T12:20:06;2.35;;;0.98;;
61330;SDS011;71993;52.478;-1.918;2023-12-28T12:22:38;3.13;;;1.10;;
61330;SDS011;71993;52.478;-1.918;2023-12-28T12:25:06;3.63;;;1.00;;
61330;SDS011;71993;52.478;-1.918;2023-12-28T12:27:36;3.40;;;1.17;;
61330;SDS011;71993;52.478;-1.918;2023-12-28T12:30:07;3.40;;;1.00;;
61330;SDS011;71993;52.478;-1.918;2023-12-28T12:32:40;2.92;;;1.10;;
61330;SDS011;71993;52.478;-1.918;2023-12-28T12:35:09;4.03;;;1.02;;
61330;SDS011;71993;52.478;-1.918;2023-12-28T12:37:42;3.15;;;1.10;;
61330;SDS011;71993;52.478;-1.918;2023-12-28T12:40:13;2.70;;;0.80;;
61330;SDS011;71993;52.478;-1.918;2023-12-28T12:42:51;3.88;;;1.08;;
61330;SDS011;71993;52.478;-1.918;2023-12-28T12:45:22;2.55;;;0.90;;
61330;SDS011;71993;52.478;-1.918;2023-12-28T12:47:55;2.95;;;0.90;;
61330;SDS011;71993;52.478;-1.918;2023-12-28T12:50:25;4.70;;;1.33;;
61330;SDS011;71993;52.478;-1.918;2023-12-28T12:52:56;3.00;;;1.02;;
61330;SDS011;71993;52.478;-1.918;2023-12-28T12:55:26;3.95;;;1.30;;
61330;SDS011;71993;52.478;-1.918;2023-12-28T12:57:55;3.75;;;1.13;;
61330;SDS011;71993;52.478;-1.918;2023-12-28T13:02:56;2.00;;;0.90;;
61330;SDS011;71993;52.478;-1.918;2023-12-28T13:05:29;2.78;;;1.02;;
61330;SDS011;71993;52.478;-1.918;2023-12-28T13:07:59;2.15;;;1.00;;
61330;SDS011;71993;52.478;-1.918;2023-12-28T13:10:30;2.80;;;1.00;;
61330;SDS011;71993;52.478;-1.918;2023-12-28T13:13:02;2.78;;;1.15;;
61330;SDS011;71993;52.478;-1.918;2023-12-28T13:15:36;3.22;;;1.00;;
61330;SDS011;71993;52.478;-1.918;2023-12-28T13:18:23;2.70;;;1.00;;
61330;SDS011;71993;52.478;-1.918;2023-12-28T13:20:53;3.78;;;1.08;;
61330;SDS011;71993;52.478;-1.918;2023-12-28T13:23:24;3.85;;;1.10;;
61330;SDS011;71993;52.478;-1.918;2023-12-28T13:25:56;3.25;;;1.00;;
61330;SDS011;71993;52.478;-1.918;2023-12-28T13:28:26;4.88;;;1.27;;
61330;SDS011;71993;52.478;-1.918;2023-12-28T13:30:57;2.58;;;1.10;;
61330;SDS011;71993;52.478;-1.918;2023-12-28T13:33:30;3.10;;;1.20;;
61330;SDS011;71993;52.478;-1.918;2023-12-28T13:36:00;2.97;;;0.90;;
61330;SDS011;71993;52.478;-1.918;2023-12-28T13:38:31;1.75;;;0.77;;
61330;SDS011;71993;52.478;-1.918;2023-12-28T13:41:01;2.80;;;0.90;;
61330;SDS011;71993;52.478;-1.918;2023-12-28T13:43:32;3.08;;;1.15;;
61330;SDS011;71993;52.478;-1.918;2023-12-28T13:46:03;2.80;;;1.00;;
61330;SDS011;71993;52.478;-1.918;2023-12-28T13:48:36;3.20;;;1.00;;
61330;SDS011;71993;52.478;-1.918;2023-12-28T13:51:08;2.25;;;0.90;;
61330;SDS011;71993;52.478;-1.918;2023-12-28T13:53:38;3.50;;;0.95;;
61330;SDS011;71993;52.478;-1.918;2023-12-28T13:56:09;2.63;;;1.10;;
61330;SDS011;71993;52.478;-1.918;2023-12-28T13:58:37;4.00;;;1.00;;
61330;SDS011;71993;52.478;-1.918;2023-12-28T14:01:05;3.25;;;1.40;;
61330;SDS011;71993;52.478;-1.918;2023-12-28T14:03:36;3.83;;;2.55;;
61330;SDS011;71993;52.478;-1.918;2023-12-28T14:06:07;5.13;;;3.97;;
61330;SDS011;71993;52.478;-1.918;2023-12-28T14:08:37;7.00;;;5.10;;
61330;SDS011;71993;52.478;-1.918;2023-12-28T14:11:08;7.05;;;6.05;;
61330;SDS011;71993;52.478;-1.918;2023-12-28T14:13:38;8.18;;;7.03;;
61330;SDS011;71993;52.478;-1.918;2023-12-28T14:16:09;9.50;;;8.43;;
61330;SDS011;71993;52.478;-1.918;2023-12-28T14:18:42;9.80;;;8.07;;
61330;SDS011;71993;52.478;-1.918;2023-12-28T14:21:14;8.77;;;7.78;;
61330;SDS011;71993;52.478;-1.918;2023-12-28T14:23:45;9.85;;;8.40;;
61330;SDS011;71993;52.478;-1.918;2023-12-28T14:26:16;11.40;;;9.40;;
61330;SDS011;71993;52.478;-1.918;2023-12-28T14:28:46;10.00;;;8.52;;
61330;SDS011;71993;52.478;-1.918;2023-12-28T14:31:17;9.48;;;8.57;;
61330;SDS011;71993;52.478;-1.918;2023-12-28T14:33:49;9.68;;;8.18;;
61330;SDS011;71993;52.478;-1.918;2023-12-28T14:36:21;9.98;;;8.25;;
61330;SDS011;71993;52.478;-1.918;2023-12-28T14:38:56;8.88;;;7.35;;
61330;SDS011;71993;52.478;-1.918;2023-12-28T14:41:26;9.48;;;7.97;;
61330;SDS011;71993;52.478;-1.918;2023-12-28T14:43:57;8.85;;;7.47;;
61330;SDS011;71993;52.478;-1.918;2023-12-28T14:46:27;8.35;;;7.43;;
61330;SDS011;71993;52.478;-1.918;2023-12-28T14:49:00;8.05;;;7.10;;
61330;SDS011;71993;52.478;-1.918;2023-12-28T14:51:31;7.95;;;7.15;;
61330;SDS011;71993;52.478;-1.918;2023-12-28T14:54:02;7.50;;;6.70;;
61330;SDS011;71993;52.478;-1.918;2023-12-28T14:56:33;7.38;;;6.40;;
61330;SDS011;71993;52.478;-1.918;2023-12-28T14:59:03;7.00;;;6.07;;
61330;SDS011;71993;52.478;-1.918;2023-12-28T15:01:33;11.77;;;6.20;;